createdAt,value
2023-06-09T00:07:12.698Z,1.90
2023-06-09T00:10:42.609Z,1.50
2023-06-09T00:13:41.465Z,1.73
2023-06-09T00:16:43.390Z,2.00
2023-06-09T00:22:56.006Z,1.80
2023-06-09T00:26:18.550Z,2.10
2023-06-09T00:29:39.162Z,1.27
2023-06-09T00:32:25.153Z,1.77
2023-06-09T00:35:01.575Z,2.20
2023-06-09T00:37:30.392Z,1.52
2023-06-09T00:39:59.035Z,1.48
2023-06-09T00:42:34.946Z,1.50
2023-06-09T00:45:04.502Z,1.92
2023-06-09T00:50:21.525Z,1.77
2023-06-09T00:52:57.957Z,1.77
2023-06-09T00:55:31.859Z,2.83
2023-06-09T00:58:07.596Z,2.13
2023-06-09T01:00:37.343Z,2.10
2023-06-09T01:03:08.357Z,1.35
2023-06-09T01:05:42.377Z,1.38
2023-06-09T01:08:20.201Z,1.85
2023-06-09T01:11:07.414Z,2.20
2023-06-09T01:13:52.281Z,1.73
2023-06-09T01:17:11.960Z,1.83
2023-06-09T01:19:45.838Z,2.08
2023-06-09T01:22:52.456Z,1.67
2023-06-09T01:25:29.391Z,1.60
2023-06-09T01:27:59.106Z,2.83
2023-06-09T01:30:35.576Z,1.77
2023-06-09T01:33:08.101Z,1.70
2023-06-09T01:35:36.114Z,1.75
2023-06-09T01:38:20.895Z,1.52
2023-06-09T01:41:17.681Z,2.03
2023-06-09T01:47:21.057Z,2.65
2023-06-09T01:50:32.369Z,1.40
2023-06-09T01:59:38.349Z,1.73
2023-06-09T02:02:23.969Z,2.58
2023-06-09T02:11:22.242Z,1.83
2023-06-09T02:23:03.885Z,1.63
2023-06-09T02:37:43.153Z,2.30
2023-06-09T02:40:23.208Z,3.37
2023-06-09T02:42:54.945Z,1.50
2023-06-09T02:45:28.273Z,1.48
2023-06-09T02:48:16.485Z,1.40
2023-06-09T02:50:47.335Z,1.67
2023-06-09T02:53:49.862Z,1.93
2023-06-09T02:56:29.985Z,2.03
2023-06-09T02:59:07.712Z,3.05
2023-06-09T03:01:59.687Z,1.85
2023-06-09T03:04:26.912Z,1.58
2023-06-09T03:06:57.217Z,1.83
2023-06-09T03:09:32.983Z,1.60
2023-06-09T03:12:16.227Z,1.90
2023-06-09T03:14:49.862Z,1.65
2023-06-09T03:17:21.405Z,3.10
2023-06-09T03:19:52.478Z,1.53
2023-06-09T03:22:30.227Z,1.80
2023-06-09T03:24:57.874Z,1.92
2023-06-09T03:27:31.142Z,1.92
2023-06-09T03:30:01.290Z,1.98
2023-06-09T03:32:37.478Z,1.97
2023-06-09T03:35:05.224Z,1.98
2023-06-09T03:37:33.115Z,2.28
2023-06-09T03:40:06.592Z,1.60
2023-06-09T03:42:36.558Z,1.85
2023-06-09T03:45:07.584Z,1.63
2023-06-09T03:47:36.237Z,2.17
2023-06-09T03:50:13.123Z,2.03
2023-06-09T03:52:44.368Z,2.30
2023-06-09T03:58:05.629Z,2.03
2023-06-09T04:00:43.906Z,1.38
2023-06-09T04:03:34.108Z,2.00
2023-06-09T04:06:10.311Z,2.05
2023-06-09T04:08:46.625Z,1.98
2023-06-09T04:11:31.876Z,2.20
2023-06-09T04:14:01.027Z,1.90
2023-06-09T04:16:29.535Z,2.35
2023-06-09T04:19:09.593Z,1.77
2023-06-09T04:22:01.678Z,2.05
2023-06-09T04:44:07.686Z,2.25
2023-06-09T05:01:12.747Z,2.42
2023-06-09T07:13:00.920Z,3.97
2023-06-09T07:15:30.185Z,4.00
2023-06-09T07:17:57.264Z,4.10
2023-06-09T07:20:38.912Z,4.00
2023-06-09T07:23:07.242Z,4.27
2023-06-09T07:25:34.145Z,4.20
2023-06-09T07:28:02.724Z,5.03
2023-06-09T07:30:29.573Z,4.18
2023-06-09T07:32:56.531Z,4.30
2023-06-09T07:35:24.706Z,3.83
2023-06-09T07:37:51.580Z,4.13
2023-06-09T07:40:22.020Z,3.97
2023-06-09T07:42:50.431Z,4.07
2023-06-09T07:45:18.928Z,4.22
2023-06-09T07:47:46.037Z,4.33
2023-06-09T07:50:20.511Z,3.65
2023-06-09T07:52:47.419Z,3.92
2023-06-09T07:55:15.628Z,3.90
2023-06-09T07:57:45.343Z,4.07
2023-06-09T08:00:16.000Z,4.03
2023-06-09T08:02:44.734Z,4.75
2023-06-09T08:05:18.417Z,4.70
2023-06-09T08:07:47.337Z,5.10
2023-06-09T08:10:14.701Z,3.97
2023-06-09T08:12:43.046Z,4.30
2023-06-09T08:15:11.242Z,4.50
2023-06-09T08:17:38.998Z,4.75
2023-06-09T08:20:08.229Z,4.72
2023-06-09T08:22:37.417Z,4.22
2023-06-09T08:25:06.021Z,4.90
2023-06-09T08:27:32.777Z,3.90
2023-06-09T08:34:39.416Z,4.80
2023-06-09T08:37:17.341Z,5.22
2023-06-09T08:40:36.485Z,4.80
2023-06-09T08:59:18.107Z,4.57
2023-06-09T09:02:07.712Z,4.65
2023-06-09T09:25:55.905Z,4.63
2023-06-09T09:32:30.261Z,3.92
2023-06-09T09:40:03.756Z,4.07
2023-06-09T09:43:11.190Z,3.78
2023-06-09T09:45:51.937Z,4.47
2023-06-09T09:48:55.461Z,4.38
2023-06-09T09:51:31.172Z,3.90
2023-06-09T10:00:26.002Z,5.20
2023-06-09T10:06:09.990Z,4.33
2023-06-09T10:08:48.516Z,4.47
2023-06-09T10:14:30.069Z,4.00
2023-06-09T10:17:09.665Z,4.50
2023-06-09T10:20:20.107Z,4.60
2023-06-09T10:22:58.090Z,4.70
2023-06-09T10:28:18.695Z,4.18
2023-06-09T10:32:00.217Z,4.60
2023-06-09T10:48:10.177Z,4.65
2023-06-09T10:50:43.988Z,4.63
2023-06-09T10:54:09.046Z,4.25
2023-06-09T10:57:08.505Z,3.80
2023-06-09T11:00:11.032Z,3.40
2023-06-09T11:02:52.525Z,4.10
2023-06-09T11:09:17.194Z,4.20
2023-06-09T11:16:08.756Z,4.03
2023-06-09T11:22:10.810Z,3.80
2023-06-09T11:25:09.597Z,4.68
2023-06-09T11:27:40.238Z,3.97
2023-06-09T11:30:40.566Z,4.10
2023-06-09T11:33:46.088Z,4.05
2023-06-09T11:36:28.838Z,4.00
2023-06-09T11:39:01.924Z,3.15
2023-06-09T11:42:18.492Z,3.17
2023-06-09T11:44:51.108Z,3.17
2023-06-09T11:47:38.562Z,3.30
2023-06-09T11:57:39.828Z,2.75
2023-06-09T12:00:37.957Z,3.05
2023-06-09T12:03:37.838Z,3.08
2023-06-09T12:06:19.035Z,3.00
2023-06-09T12:14:59.600Z,3.50
2023-06-09T12:18:11.114Z,3.53
2023-06-09T12:20:42.924Z,3.57
2023-06-09T12:23:34.174Z,3.55
2023-06-09T12:57:28.375Z,3.03
2023-06-09T13:06:25.505Z,3.55
2023-06-09T13:10:03.624Z,3.28
2023-06-09T13:24:17.335Z,3.38
2023-06-09T13:26:44.895Z,3.30
2023-06-09T13:29:11.483Z,3.20
2023-06-09T13:31:38.083Z,3.85
2023-06-09T13:34:04.623Z,3.50
2023-06-09T13:36:31.292Z,3.55
2023-06-09T13:38:57.837Z,3.55
2023-06-09T13:41:24.329Z,4.10
2023-06-09T13:43:51.630Z,3.70
2023-06-09T13:46:19.377Z,3.28
2023-06-09T13:48:46.076Z,4.00
2023-06-09T13:51:12.718Z,3.40
2023-06-09T13:53:39.344Z,3.40
2023-06-09T13:56:06.054Z,3.35
2023-06-09T13:58:36.976Z,3.83
2023-06-09T14:01:03.886Z,3.15
2023-06-09T14:03:30.518Z,3.10
2023-06-09T14:05:57.157Z,2.90
2023-06-09T14:08:24.133Z,2.90
2023-06-09T14:10:50.841Z,3.15
2023-06-09T14:13:17.286Z,3.40
2023-06-09T14:15:43.862Z,3.30
2023-06-09T14:18:10.423Z,3.47
2023-06-09T14:20:37.034Z,3.95
2023-06-09T14:23:09.723Z,3.40
2023-06-09T14:25:36.862Z,3.30
2023-06-09T14:28:04.027Z,3.20
2023-06-09T14:30:30.671Z,3.27
2023-06-09T14:32:57.243Z,3.00
2023-06-09T14:35:25.892Z,3.10
2023-06-09T14:38:01.337Z,3.22
2023-06-09T14:40:30.364Z,3.13
2023-06-09T14:42:58.207Z,2.90
2023-06-09T14:45:25.543Z,3.08
2023-06-09T14:48:00.685Z,3.35
2023-06-09T14:50:32.720Z,3.10
2023-06-09T14:53:00.281Z,3.70
2023-06-09T14:55:37.964Z,3.70
2023-06-09T14:58:05.271Z,3.35
2023-06-09T15:00:33.314Z,2.92
2023-06-09T15:03:01.205Z,3.85
2023-06-09T15:05:29.781Z,3.20
2023-06-09T15:07:58.669Z,3.20
2023-06-09T15:10:25.721Z,3.17
2023-06-09T15:12:52.900Z,3.58
2023-06-09T15:15:21.725Z,3.70
2023-06-09T15:17:48.677Z,3.28
2023-06-09T15:20:17.323Z,3.27
2023-06-09T15:22:43.995Z,3.05
2023-06-09T15:25:11.623Z,3.67
2023-06-09T15:27:39.546Z,3.35
2023-06-09T15:30:07.736Z,3.17
2023-06-09T15:32:35.501Z,2.70
2023-06-09T15:35:02.194Z,3.25
2023-06-09T15:37:28.762Z,3.17
2023-06-09T15:39:55.319Z,2.97
2023-06-09T15:42:21.925Z,3.35
2023-06-09T15:44:48.433Z,3.33
2023-06-09T15:47:15.121Z,3.08
2023-06-09T15:49:41.680Z,3.20
2023-06-09T15:52:08.344Z,3.25
2023-06-09T15:54:34.837Z,3.38
2023-06-09T15:57:01.923Z,3.43
2023-06-09T15:59:29.867Z,3.30
2023-06-09T16:01:57.168Z,2.97
2023-06-09T16:04:24.596Z,3.28
2023-06-09T16:06:51.713Z,3.47
2023-06-09T16:09:18.561Z,3.30
2023-06-09T16:11:45.430Z,3.50
2023-06-09T16:14:11.933Z,3.55
2023-06-09T16:16:38.553Z,3.08
2023-06-09T16:19:05.113Z,3.60
2023-06-09T16:21:32.086Z,3.10
2023-06-09T16:23:58.653Z,4.35
2023-06-09T16:26:28.209Z,3.05
2023-06-09T16:28:55.149Z,3.92
2023-06-09T16:31:21.782Z,4.32
2023-06-09T16:33:48.387Z,3.80
2023-06-09T16:36:14.910Z,3.67
2023-06-09T16:38:43.270Z,4.18
2023-06-09T16:41:10.183Z,5.22
2023-06-09T16:43:38.784Z,4.70
2023-06-09T16:46:06.180Z,3.53
2023-06-09T16:48:35.777Z,3.90
2023-06-09T16:51:04.117Z,4.18
2023-06-09T16:53:31.497Z,3.92
2023-06-09T16:55:58.325Z,3.90
2023-06-09T16:58:24.903Z,4.93
2023-06-09T17:00:51.442Z,3.88
2023-06-09T17:03:18.075Z,3.58
2023-06-09T17:05:44.900Z,3.85
2023-06-09T17:08:11.766Z,3.78
2023-06-09T17:10:38.302Z,4.10
2023-06-09T17:13:06.086Z,3.72
2023-06-09T17:15:33.222Z,3.90
2023-06-09T17:18:00.305Z,3.45
2023-06-09T17:20:26.978Z,5.20
2023-06-09T17:22:53.798Z,4.10
2023-06-09T17:25:20.504Z,3.75
2023-06-09T17:27:47.793Z,3.55
2023-06-09T17:30:15.517Z,4.30
2023-06-09T17:32:43.832Z,4.07
2023-06-09T17:35:11.701Z,4.33
2023-06-09T17:37:38.852Z,5.55
2023-06-09T17:40:09.847Z,3.92
2023-06-09T17:42:36.942Z,6.55
2023-06-09T17:45:08.304Z,17.17
2023-06-09T17:47:37.318Z,5.67
2023-06-09T17:50:05.751Z,4.80
2023-06-09T17:52:32.302Z,4.78
2023-06-09T17:54:58.964Z,6.25
2023-06-09T17:57:25.531Z,4.68
2023-06-09T17:59:52.022Z,4.13
2023-06-09T18:02:18.926Z,4.22
2023-06-09T18:04:45.567Z,3.28
2023-06-09T18:07:12.194Z,3.80
2023-06-09T18:09:38.696Z,3.95
2023-06-09T18:12:05.684Z,4.40
2023-06-09T18:14:32.159Z,4.47
2023-06-09T18:16:58.877Z,4.57
2023-06-09T18:19:25.590Z,4.05
2023-06-09T18:21:53.253Z,3.92
2023-06-09T18:24:19.862Z,3.77
2023-06-09T18:26:46.613Z,4.65
2023-06-09T18:29:13.223Z,3.95
2023-06-09T18:31:39.972Z,4.65
2023-06-09T18:34:06.583Z,4.55
2023-06-09T18:36:33.161Z,4.07
2023-06-09T18:39:00.338Z,4.70
2023-06-09T18:41:27.100Z,3.92
2023-06-09T18:43:55.727Z,4.57
2023-06-09T18:46:22.631Z,4.13
2023-06-09T18:49:00.283Z,4.17
2023-06-09T18:51:27.474Z,4.30
2023-06-09T18:53:54.721Z,4.40
2023-06-09T18:56:21.503Z,4.82
2023-06-09T18:58:48.093Z,3.67
2023-06-09T19:01:15.372Z,5.03
2023-06-09T19:03:42.123Z,4.63
2023-06-09T19:06:08.699Z,3.78
2023-06-09T19:08:35.307Z,4.72
2023-06-09T19:11:01.836Z,4.63
2023-06-09T19:13:28.293Z,4.37
2023-06-09T19:15:56.305Z,4.38
2023-06-09T19:18:23.440Z,4.47
2023-06-09T19:20:51.117Z,5.28
2023-06-09T19:23:17.811Z,4.30
2023-06-09T19:25:44.379Z,4.10
2023-06-09T19:28:10.929Z,4.60
2023-06-09T19:30:39.808Z,4.75
2023-06-09T19:33:07.867Z,4.38
2023-06-09T19:35:34.735Z,4.40
2023-06-09T19:38:01.267Z,4.47
2023-06-09T19:40:27.809Z,4.07
2023-06-09T19:42:54.317Z,4.60
2023-06-09T19:45:20.942Z,4.20
2023-06-09T19:47:47.784Z,4.53
2023-06-09T19:50:14.343Z,4.40
2023-06-09T19:52:40.935Z,4.32
2023-06-09T19:55:08.092Z,4.45
2023-06-09T19:57:34.882Z,4.65
2023-06-09T20:00:01.473Z,4.43
2023-06-09T20:02:28.197Z,3.80
2023-06-09T20:04:54.764Z,4.93
2023-06-09T20:07:21.338Z,3.85
2023-06-09T20:09:47.897Z,4.32
2023-06-09T20:12:14.452Z,4.38
2023-06-09T20:14:42.538Z,4.70
2023-06-09T20:17:09.620Z,4.70
2023-06-09T20:19:40.779Z,3.88
2023-06-09T20:22:09.352Z,4.72
2023-06-09T20:24:35.995Z,4.05
2023-06-09T20:27:02.636Z,4.77
2023-06-09T20:29:29.895Z,4.32
2023-06-09T20:31:56.450Z,4.65
2023-06-09T20:34:23.039Z,4.28
2023-06-09T20:36:49.611Z,4.25
2023-06-09T20:39:16.205Z,3.93
2023-06-09T20:41:42.913Z,4.53
2023-06-09T20:44:09.593Z,4.43
2023-06-09T20:46:36.564Z,4.30
2023-06-09T20:49:03.488Z,4.35
2023-06-09T20:51:30.056Z,4.00
2023-06-09T20:53:57.270Z,4.93
2023-06-09T20:56:24.001Z,4.15
2023-06-09T20:58:51.248Z,4.43
2023-06-09T21:01:17.966Z,4.00
2023-06-09T21:03:47.396Z,4.30
2023-06-09T21:06:20.468Z,4.32
2023-06-09T21:08:50.667Z,4.30
2023-06-09T21:11:17.929Z,4.10
2023-06-09T21:13:46.379Z,4.35
2023-06-09T21:16:12.958Z,4.67
2023-06-09T21:18:39.466Z,4.75
2023-06-09T21:21:06.069Z,4.57
2023-06-09T21:23:32.598Z,4.70
2023-06-09T21:25:59.277Z,4.10
2023-06-09T21:28:25.831Z,4.00
2023-06-09T21:30:52.378Z,3.90
2023-06-09T21:33:18.882Z,4.45
2023-06-09T21:35:45.464Z,3.85
2023-06-09T21:38:11.960Z,3.70
2023-06-09T21:40:38.532Z,4.27
2023-06-09T21:43:06.930Z,3.85
2023-06-09T21:45:35.681Z,3.90
2023-06-09T21:48:02.811Z,3.95
2023-06-09T21:50:29.513Z,4.03
2023-06-09T21:52:56.121Z,4.07
2023-06-09T21:55:24.016Z,3.60
2023-06-09T21:57:50.606Z,3.90
2023-06-09T22:00:19.080Z,4.00
2023-06-09T22:02:47.291Z,4.90
2023-06-09T22:05:13.950Z,4.37
2023-06-09T22:07:40.529Z,4.30
2023-06-09T22:10:07.771Z,3.55
2023-06-09T22:12:40.096Z,4.28
2023-06-09T22:15:10.518Z,4.60
2023-06-09T22:17:39.789Z,4.53
2023-06-09T22:20:07.922Z,5.18
2023-06-09T22:22:34.637Z,5.30
2023-06-09T22:25:01.264Z,4.63
2023-06-09T22:27:29.131Z,4.63
2023-06-09T22:29:56.461Z,4.90
2023-06-09T22:32:24.024Z,4.35
2023-06-09T22:34:51.280Z,4.80
2023-06-09T22:37:18.748Z,4.20
2023-06-09T22:39:46.001Z,4.85
2023-06-09T22:42:12.527Z,4.23
2023-06-09T22:44:39.269Z,4.65
2023-06-09T22:47:06.106Z,3.97
2023-06-09T22:49:32.679Z,4.07
2023-06-09T22:52:03.165Z,4.78
2023-06-09T22:54:30.202Z,3.87
2023-06-09T22:56:56.916Z,4.45
2023-06-09T22:59:23.726Z,3.88
2023-06-09T23:01:50.425Z,3.83
2023-06-09T23:04:18.364Z,3.90
2023-06-09T23:06:44.909Z,4.07
2023-06-09T23:09:11.459Z,4.78
2023-06-09T23:11:38.746Z,3.85
2023-06-09T23:14:06.220Z,3.97
2023-06-09T23:16:33.528Z,3.90
2023-06-09T23:19:01.007Z,3.70
2023-06-09T23:21:29.212Z,3.53
2023-06-09T23:24:01.576Z,3.70
2023-06-09T23:26:28.123Z,3.75
2023-06-09T23:28:54.778Z,3.22
2023-06-09T23:31:21.620Z,3.20
2023-06-09T23:33:50.927Z,3.78
2023-06-09T23:36:20.005Z,3.47
2023-06-09T23:38:46.648Z,3.13
2023-06-09T23:41:13.343Z,2.95
2023-06-09T23:43:39.898Z,3.33
2023-06-09T23:46:07.086Z,3.15
2023-06-09T23:48:33.753Z,3.17
2023-06-09T23:51:00.374Z,3.05
2023-06-09T23:53:26.899Z,3.20
2023-06-09T23:55:54.984Z,2.83
2023-06-09T23:58:21.886Z,2.80
